Time;durP1;ratioP1;P1;durP2;ratioP2;P2;SDS_P1;SDS_P2;PMS_P1;PMS_P2;Temp;Humidity;BMP_temperature;BMP_pressure;BME280_temperature;BME280_humidity;BME280_pressure;Samples;Min_cycle;Max_cycle;Signal;HPM_P1;HPM_P2
2021/04/20 00:01:16;;;;;;;22.93;12.33;;;;;;;6.31;82.36;99844.77;1640975;86;21218;-81
2021/04/20 00:03:45;;;;;;;25.77;15.03;;;;;;;6.32;82.75;99841.23;1640892;87;21247;-81
2021/04/20 00:06:14;;;;;;;33.63;18.75;;;;;;;6.30;82.58;99843.91;1672056;85;21194;-80
2021/04/20 00:08:43;;;;;;;35.98;19.92;;;;;;;6.32;82.49;99842.55;1641140;87;21167;-79
2021/04/20 00:11:12;;;;;;;33.50;17.67;;;;;;;6.31;82.65;99836.91;1672126;85;21791;-81
2021/04/20 00:13:41;;;;;;;28.17;16.23;;;;;;;6.36;83.17;99836.34;1641115;87;21711;-82
2021/04/20 00:16:09;;;;;;;27.22;16.27;;;;;;;6.41;83.10;99838.85;1671845;85;21696;-79
2021/04/20 00:18:38;;;;;;;26.95;14.85;;;;;;;6.42;82.85;99827.05;1617977;86;21179;-78
2021/04/20 00:21:06;;;;;;;20.57;13.43;;;;;;;6.42;82.73;99828.36;1598894;89;21227;-78
2021/04/20 00:23:34;;;;;;;19.07;11.22;;;;;;;6.41;82.50;99831.86;1612966;87;21696;-77
2021/04/20 00:26:02;;;;;;;17.48;11.57;;;;;;;6.38;82.55;99824.09;1642218;87;21234;-78
2021/04/20 00:28:31;;;;;;;19.50;11.95;;;;;;;6.38;82.57;99824.09;1611952;88;21226;-76
2021/04/20 00:31:00;;;;;;;14.63;10.55;;;;;;;6.35;82.25;99824.18;1627263;88;21218;-77
2021/04/20 00:33:28;;;;;;;7.83;5.65;;;;;;;6.31;82.08;99819.91;1596859;89;21239;-78
2021/04/20 00:35:55;;;;;;;19.45;9.88;;;;;;;6.29;82.16;99819.09;1594804;89;21440;-79
2021/04/20 00:38:24;;;;;;;11.40;7.65;;;;;;;6.24;82.37;99813.13;1624664;88;21230;-77
2021/04/20 00:40:51;;;;;;;22.93;11.28;;;;;;;6.21;82.44;99805.33;1597647;89;21226;-81
2021/04/20 00:43:34;;;;;;;15.10;10.08;;;;;;;6.17;82.67;99806.33;1647173;86;21198;-80
2021/04/20 00:46:02;;;;;;;15.45;10.32;;;;;;;6.14;82.90;99805.92;1650401;86;21213;-81
2021/04/20 00:48:30;;;;;;;16.15;10.03;;;;;;;6.12;83.31;99797.70;1650547;86;21380;-80
2021/04/20 00:50:58;;;;;;;14.68;10.18;;;;;;;6.11;83.43;99798.61;1650280;86;21165;-79
2021/04/20 00:53:27;;;;;;;16.00;10.68;;;;;;;6.08;83.79;99795.17;1650562;86;21234;-79
2021/04/20 00:55:55;;;;;;;19.45;11.88;;;;;;;6.07;84.11;99794.78;1639702;86;21529;-80
2021/04/20 00:58:23;;;;;;;21.10;12.10;;;;;;;6.07;84.38;99790.86;1639026;86;21666;-80
2021/04/20 01:00:51;;;;;;;20.27;12.53;;;;;;;6.04;84.49;99790.91;1638852;87;21389;-82
2021/04/20 01:03:19;;;;;;;22.90;12.15;;;;;;;6.04;84.50;99784.38;1638894;86;21217;-82
2021/04/20 01:05:48;;;;;;;17.87;9.50;;;;;;;6.02;84.36;99782.24;1638802;87;21232;-81
2021/04/20 01:08:17;;;;;;;12.13;8.03;;;;;;;6.00;84.43;99776.19;1639077;84;21264;-81
2021/04/20 01:10:51;;;;;;;10.55;6.90;;;;;;;6.02;84.78;99777.02;1639077;86;21201;-81
2021/04/20 01:13:22;;;;;;;11.78;7.25;;;;;;;5.99;84.77;99777.09;1649172;86;21822;-81
2021/04/20 01:15:52;;;;;;;20.08;9.55;;;;;;;5.97;85.18;99773.66;1650335;86;21178;-80
2021/04/20 01:18:30;;;;;;;15.58;9.40;;;;;;;5.96;85.11;99770.65;1650616;86;21238;-82
2021/04/20 01:21:06;;;;;;;15.60;9.80;;;;;;;5.95;84.91;99775.91;1650272;86;21226;-82
2021/04/20 01:24:02;;;;;;;17.60;10.45;;;;;;;5.93;85.09;99766.75;1650722;86;22452;-82
2021/04/20 01:26:37;;;;;;;16.67;10.72;;;;;;;5.91;85.58;99762.45;1645873;86;21347;-76
2021/04/20 01:29:05;;;;;;;15.18;9.23;;;;;;;5.88;85.63;99762.94;1637484;87;21657;-81
2021/04/20 01:31:35;;;;;;;12.73;8.15;;;;;;;5.86;85.52;99757.34;1637496;87;21213;-79
2021/04/20 01:34:03;;;;;;;10.80;7.22;;;;;;;5.84;85.38;99757.81;1637296;87;21195;-80
2021/04/20 01:36:31;;;;;;;10.30;6.25;;;;;;;5.83;85.32;99750.89;1641113;87;21227;-80
2021/04/20 01:39:00;;;;;;;10.65;7.10;;;;;;;5.80;85.56;99748.36;1631070;87;21481;-80
2021/04/20 01:41:28;;;;;;;15.25;9.73;;;;;;;5.78;85.90;99743.61;1643120;86;21251;-78
2021/04/20 01:43:57;;;;;;;15.38;9.45;;;;;;;5.77;85.98;99741.87;1620134;86;21173;-79
2021/04/20 01:46:26;;;;;;;35.47;17.90;;;;;;;5.73;85.86;99740.22;1632529;87;21737;-79
2021/04/20 01:48:55;;;;;;;39.10;19.77;;;;;;;5.70;85.66;99741.61;1632495;87;21237;-77
2021/04/20 01:51:23;;;;;;;37.78;18.85;;;;;;;5.68;85.65;99743.83;1632622;87;22210;-79
2021/04/20 01:53:51;;;;;;;37.88;18.65;;;;;;;5.67;85.60;99742.09;1632669;87;21208;-79
2021/04/20 01:56:19;;;;;;;37.83;20.05;;;;;;;5.66;85.97;99733.86;1632644;87;21237;-79
2021/04/20 01:58:47;;;;;;;46.45;23.40;;;;;;;5.66;86.35;99732.55;1632608;87;21205;-78
2021/04/20 02:01:18;;;;;;;49.63;22.52;;;;;;;5.66;86.19;99731.70;1632717;87;21224;-80
2021/04/20 02:03:47;;;;;;;41.33;21.20;;;;;;;5.63;86.16;99728.68;1632923;87;21384;-80
2021/04/20 02:06:20;;;;;;;37.25;18.02;;;;;;;5.61;85.96;99727.00;1632685;87;21193;-79
2021/04/20 02:08:50;;;;;;;29.10;13.65;;;;;;;5.55;86.12;99721.94;1631542;86;21200;-80
2021/04/20 02:11:22;;;;;;;33.30;17.05;;;;;;;5.55;86.23;99722.79;1631410;87;21187;-80
2021/04/20 02:13:50;;;;;;;28.57;15.03;;;;;;;5.54;86.48;99717.14;1631522;87;22173;-80
2021/04/20 02:16:19;;;;;;;30.20;15.23;;;;;;;5.49;86.40;99717.70;1631164;87;21433;-80
2021/04/20 02:18:51;;;;;;;25.15;13.95;;;;;;;5.46;86.39;99725.16;1631173;87;21208;-79
2021/04/20 02:21:19;;;;;;;38.30;18.55;;;;;;;5.46;86.66;99721.70;1631263;86;21344;-79
2021/04/20 02:23:47;;;;;;;37.93;20.92;;;;;;;5.46;86.94;99726.92;1631420;86;21157;-79
2021/04/20 02:26:19;;;;;;;46.48;22.70;;;;;;;5.46;87.00;99720.39;1631102;87;21209;-80
2021/04/20 02:28:49;;;;;;;45.28;21.42;;;;;;;5.48;87.11;99724.28;1631291;87;21348;-80
2021/04/20 02:31:17;;;;;;;46.53;23.32;;;;;;;5.48;87.25;99722.52;1631268;87;21699;-78
2021/04/20 02:33:50;;;;;;;44.15;22.90;;;;;;;5.49;87.45;99720.31;1631291;87;21208;-78
2021/04/20 02:36:18;;;;;;;42.03;22.32;;;;;;;5.49;87.51;99707.25;1629834;87;21215;-77
2021/04/20 02:38:47;;;;;;;35.78;19.92;;;;;;;5.49;87.41;99709.86;1628671;88;21199;-77
2021/04/20 02:41:18;;;;;;;35.85;19.40;;;;;;;5.51;87.31;99711.14;1637685;87;21207;-78
2021/04/20 02:43:46;;;;;;;34.88;20.70;;;;;;;5.51;87.38;99711.99;1637846;87;21211;-78
2021/04/20 02:46:17;;;;;;;39.53;20.90;;;;;;;5.51;87.29;99708.08;1638050;87;25731;-76
2021/04/20 02:48:46;;;;;;;32.80;18.37;;;;;;;5.51;87.34;99701.55;1637837;87;21203;-76
2021/04/20 02:51:13;;;;;;;38.80;22.32;;;;;;;5.51;87.38;99696.78;1637917;87;21813;-78
2021/04/20 02:53:43;;;;;;;35.08;21.33;;;;;;;5.52;87.41;99695.45;1637006;87;21924;-78
2021/04/20 02:56:13;;;;;;;27.22;15.60;;;;;;;5.53;87.39;99698.45;1637014;87;21253;-77
2021/04/20 02:58:41;;;;;;;33.65;17.82;;;;;;;5.55;87.46;99692.75;1628196;88;21201;-79
2021/04/20 03:01:27;;;;;;;34.67;18.30;;;;;;;5.56;87.76;99694.45;1627869;88;21219;-77
2021/04/20 03:03:56;;;;;;;29.45;18.57;;;;;;;5.57;87.79;99701.88;1637491;87;21181;-77
2021/04/20 03:06:24;;;;;;;28.92;18.12;;;;;;;5.56;87.74;99700.98;1637485;87;21883;-78
2021/04/20 03:08:53;;;;;;;29.35;18.77;;;;;;;5.57;87.75;99696.19;1637311;87;21226;-77
2021/04/20 03:11:37;;;;;;;29.07;18.87;;;;;;;5.58;87.71;99699.66;1637591;87;21187;-78
2021/04/20 03:14:05;;;;;;;27.73;17.23;;;;;;;5.60;87.52;99697.41;1630060;86;21244;-78
2021/04/20 03:16:39;;;;;;;21.85;14.03;;;;;;;5.62;87.35;99696.08;1619850;87;21245;-77
2021/04/20 03:19:09;;;;;;;27.42;18.95;;;;;;;5.64;87.46;99700.38;1579563;90;22780;-79
2021/04/20 03:21:37;;;;;;;26.40;17.70;;;;;;;5.67;87.39;99696.37;1610218;87;21230;-80
2021/04/20 03:24:06;;;;;;;26.35;17.10;;;;;;;5.67;87.28;99692.45;1629432;87;21191;-78
2021/04/20 03:26:40;;;;;;;29.18;19.48;;;;;;;5.68;87.31;99698.11;1638095;86;21196;-79
2021/04/20 03:29:09;;;;;;;32.63;19.45;;;;;;;5.71;87.29;99696.31;1636789;87;21913;-79
2021/04/20 03:31:39;;;;;;;28.32;16.75;;;;;;;5.73;87.00;99698.41;1629799;87;21356;-80
2021/04/20 03:34:24;;;;;;;30.50;18.30;;;;;;;5.78;87.11;99692.66;1630340;87;21236;-80
2021/04/20 03:37:11;;;;;;;23.85;17.10;;;;;;;5.78;87.11;99692.66;1624050;86;21552;-77
2021/04/20 03:39:44;;;;;;;31.50;18.98;;;;;;;5.77;86.68;99687.00;1621530;87;21238;-78
2021/04/20 03:42:19;;;;;;;22.80;12.82;;;;;;;5.79;86.43;99690.44;1634869;86;21204;-77
2021/04/20 03:44:51;;;;;;;35.33;20.10;;;;;;;5.79;86.34;99699.13;1634282;87;21622;-75
2021/04/20 03:47:24;;;;;;;31.12;18.85;;;;;;;5.81;86.39;99699.11;1642438;87;21168;-79
2021/04/20 03:49:52;;;;;;;35.23;20.23;;;;;;;5.84;86.23;99697.71;1631186;88;21225;-78
2021/04/20 03:52:29;;;;;;;35.40;18.67;;;;;;;5.91;86.47;99695.35;1629785;88;21216;-78
2021/04/20 03:54:57;;;;;;;34.95;20.00;;;;;;;5.98;86.27;99698.70;1627025;88;21205;-78
2021/04/20 03:57:26;;;;;;;31.25;20.52;;;;;;;6.00;86.02;99689.93;1629005;88;21391;-79
2021/04/20 03:59:56;;;;;;;27.15;17.77;;;;;;;6.05;85.92;99689.39;1622236;88;21252;-76
2021/04/20 04:02:24;;;;;;;25.10;15.37;;;;;;;6.27;85.78;99692.73;1638501;87;21565;-77
2021/04/20 04:04:52;;;;;;;28.92;16.80;;;;;;;6.65;85.15;99690.86;1637553;87;21237;-78
2021/04/20 04:07:20;;;;;;;25.82;16.82;;;;;;;7.02;83.77;99687.19;1638141;87;21720;-77
2021/04/20 04:09:48;;;;;;;27.77;16.57;;;;;;;7.38;82.20;99681.72;1636188;87;21773;-78
2021/04/20 04:12:17;;;;;;;26.02;17.85;;;;;;;7.62;81.26;99677.02;1629977;87;21202;-78
2021/04/20 04:14:46;;;;;;;25.30;16.15;;;;;;;7.93;79.76;99679.94;1638745;87;21649;-77
2021/04/20 04:17:16;;;;;;;19.17;13.08;;;;;;;8.17;78.92;99673.02;1620449;87;21679;-78
2021/04/20 04:19:49;;;;;;;21.50;14.23;;;;;;;8.58;78.38;99675.53;1638886;87;21204;-78
2021/04/20 04:22:31;;;;;;;21.55;13.18;;;;;;;9.11;76.13;99674.45;1638806;86;22283;-77
2021/04/20 04:25:00;;;;;;;19.07;12.90;;;;;;;9.64;74.22;99666.69;1638360;87;21738;-77
2021/04/20 04:27:35;;;;;;;20.30;14.05;;;;;;;10.12;70.41;99662.06;1638026;87;21261;-77
2021/04/20 04:30:08;;;;;;;22.45;14.50;;;;;;;10.50;70.25;99656.03;1635560;87;21202;-79
2021/04/20 04:32:39;;;;;;;22.30;14.58;;;;;;;10.92;67.97;99658.11;1625929;88;22263;-78
2021/04/20 04:35:09;;;;;;;21.87;14.55;;;;;;;11.23;66.01;99656.23;1625607;88;21388;-82
2021/04/20 04:37:37;;;;;;;24.37;14.80;;;;;;;11.31;64.05;99659.34;1582746;88;21269;-81
2021/04/20 04:40:07;;;;;;;17.95;13.90;;;;;;;11.18;64.30;99662.62;1580026;90;21243;-83
2021/04/20 04:42:36;;;;;;;24.60;14.38;;;;;;;10.87;64.57;99662.74;1589707;89;21252;-82
2021/04/20 04:45:08;;;;;;;18.55;13.65;;;;;;;10.48;65.60;99664.92;1598718;89;21229;-83
2021/04/20 04:47:37;;;;;;;21.95;15.18;;;;;;;10.27;66.65;99656.16;1603417;89;21311;-79
2021/04/20 04:50:08;;;;;;;20.57;14.20;;;;;;;10.28;66.71;99654.81;1603138;89;21249;-77
2021/04/20 04:52:36;;;;;;;18.75;13.58;;;;;;;10.22;66.88;99662.93;1597641;88;21298;-83
2021/04/20 04:55:05;;;;;;;17.92;12.53;;;;;;;10.10;67.30;99655.57;1600444;89;21245;-82
2021/04/20 04:57:33;;;;;;;22.77;13.30;;;;;;;10.16;68.19;99653.97;1603949;89;21250;-82
2021/04/20 05:00:05;;;;;;;21.90;13.08;;;;;;;10.41;67.21;99655.12;1603359;89;21395;-81
2021/04/20 05:02:39;;;;;;;18.05;13.53;;;;;;;10.91;66.59;99648.52;1601698;89;21228;-81
2021/04/20 05:05:10;;;;;;;19.77;12.85;;;;;;;11.51;63.73;99645.21;1603477;89;21228;-82
2021/04/20 05:07:39;;;;;;;17.95;12.40;;;;;;;12.00;62.03;99643.74;1603592;89;21249;-81
2021/04/20 05:10:09;;;;;;;16.02;12.43;;;;;;;12.43;60.98;99642.39;1596982;89;21213;-82
2021/04/20 05:12:39;;;;;;;17.98;11.78;;;;;;;12.70;59.06;99633.92;1603943;88;21410;-78
2021/04/20 05:15:15;;;;;;;13.05;10.78;;;;;;;12.82;59.01;99638.56;1604357;88;21248;-79
2021/04/20 05:17:44;;;;;;;14.38;10.38;;;;;;;13.00;58.52;99638.88;1601964;89;21217;-78
2021/04/20 05:20:18;;;;;;;12.63;10.28;;;;;;;13.11;57.59;99647.55;1603420;88;21248;-80
2021/04/20 05:22:47;;;;;;;13.22;11.08;;;;;;;12.78;57.77;99637.86;1602363;88;21637;-81
2021/04/20 05:25:19;;;;;;;16.87;10.98;;;;;;;12.59;58.23;99639.80;1604654;89;21411;-80
2021/04/20 05:27:51;;;;;;;13.78;10.53;;;;;;;12.56;58.60;99639.94;1602687;89;21145;-79
2021/04/20 05:30:20;;;;;;;15.83;11.63;;;;;;;12.47;58.87;99645.27;1604587;89;21772;-80
2021/04/20 05:32:52;;;;;;;15.40;10.35;;;;;;;12.41;59.12;99646.05;1604088;89;21205;-80
2021/04/20 05:35:21;;;;;;;14.07;10.88;;;;;;;12.19;59.23;99644.50;1602409;88;21257;-80
2021/04/20 05:37:50;;;;;;;17.77;11.97;;;;;;;11.84;60.45;99647.11;1605413;88;22338;-80
2021/04/20 05:40:30;;;;;;;21.77;11.25;;;;;;;11.60;61.36;99640.43;1628379;86;21169;-80
2021/04/20 05:42:58;;;;;;;14.87;10.50;;;;;;;11.47;62.29;99643.64;1627012;86;21241;-79
2021/04/20 05:45:26;;;;;;;13.35;10.38;;;;;;;11.51;62.55;99643.05;1641162;85;21206;-80
2021/04/20 05:47:54;;;;;;;13.48;10.70;;;;;;;11.50;61.88;99641.32;1645431;85;21209;-80
2021/04/20 05:50:28;;;;;;;11.97;9.68;;;;;;;11.37;62.41;99645.03;1643338;85;21695;-79
2021/04/20 05:52:58;;;;;;;15.03;9.73;;;;;;;11.24;62.74;99642.58;1635185;85;21249;-80
2021/04/20 05:55:26;;;;;;;11.50;9.53;;;;;;;10.96;63.65;99643.87;1633962;86;21194;-80
2021/04/20 05:57:55;;;;;;;14.43;10.05;;;;;;;10.71;64.70;99646.30;1641434;85;21229;-81
2021/04/20 06:00:24;;;;;;;15.38;10.08;;;;;;;10.49;65.62;99653.48;1647471;85;21190;-79
2021/04/20 06:02:54;;;;;;;13.62;9.80;;;;;;;10.25;66.53;99656.20;1636930;86;21358;-80
2021/04/20 06:05:25;;;;;;;11.90;9.18;;;;;;;10.06;67.33;99650.04;1646969;85;21220;-80
2021/04/20 06:07:55;;;;;;;13.32;9.65;;;;;;;10.37;67.40;99644.79;1632315;86;22155;-80
2021/04/20 06:10:25;;;;;;;13.40;9.83;;;;;;;11.03;65.31;99644.45;1644478;85;21213;-80
2021/04/20 06:12:55;;;;;;;15.72;10.00;;;;;;;11.61;63.88;99633.73;1624113;85;21249;-79
2021/04/20 06:15:24;;;;;;;14.83;10.88;;;;;;;12.05;62.38;99633.80;1636595;86;22603;-81
2021/04/20 06:17:52;;;;;;;21.85;16.57;;;;;;;12.20;60.55;99626.42;1583104;88;21725;-79
2021/04/20 06:20:23;;;;;;;19.85;13.83;;;;;;;12.08;60.72;99627.91;1653752;85;21201;-80
2021/04/20 06:22:54;;;;;;;14.38;11.05;;;;;;;11.97;61.31;99630.24;1618973;87;21656;-81
2021/04/20 06:25:22;;;;;;;14.00;10.65;;;;;;;11.88;61.16;99631.55;1643505;85;21190;-81
2021/04/20 06:27:50;;;;;;;20.82;13.40;;;;;;;11.74;61.79;99625.62;1646395;85;21297;-79
2021/04/20 06:30:19;;;;;;;12.75;9.50;;;;;;;11.79;61.98;99629.81;1632896;86;21225;-79
2021/04/20 06:35:31;;;;;;;12.82;8.40;;;;;;;12.67;60.52;99613.80;1869570;75;22868;-80
2021/04/20 06:37:59;;;;;;;14.18;8.28;;;;;;;13.28;58.04;99608.77;1853317;77;21178;-81
2021/04/20 06:40:43;;;;;;;9.20;7.83;;;;;;;13.96;56.33;99605.22;1852711;77;21197;-81
2021/04/20 06:43:13;;;;;;;9.63;6.92;;;;;;;14.62;53.62;99595.11;1838157;77;21742;-80
2021/04/20 06:46:00;;;;;;;10.88;6.47;;;;;;;15.19;53.05;99593.70;1783235;79;21178;-80
2021/04/20 06:48:39;;;;;;;7.35;6.00;;;;;;;15.77;49.47;99588.19;1811232;78;21163;-81
2021/04/20 06:51:18;;;;;;;9.90;6.22;;;;;;;16.33;48.24;99588.77;1786301;78;21183;-82
2021/04/20 06:53:50;;;;;;;6.00;4.95;;;;;;;16.62;48.21;99586.73;1762133;80;21475;-80
2021/04/20 06:56:34;;;;;;;6.83;5.00;;;;;;;16.65;47.27;99588.31;1753854;81;21060;-81
2021/04/20 06:59:23;;;;;;;7.83;5.28;;;;;;;16.37;46.54;99590.25;1732767;81;21206;-81
2021/04/20 07:01:58;;;;;;;10.15;6.67;;;;;;;15.77;47.41;99589.52;1768362;80;21200;-80
2021/04/20 07:04:51;;;;;;;8.00;6.15;;;;;;;15.11;48.75;99593.33;1769627;80;21580;-81
2021/04/20 07:08:00;;;;;;;9.53;6.45;;;;;;;14.78;50.00;99593.69;1778541;80;21230;-80
2021/04/20 07:10:37;;;;;;;9.98;6.83;;;;;;;14.47;51.37;99580.52;1753255;81;21214;-79
2021/04/20 07:13:17;;;;;;;10.80;7.50;;;;;;;14.30;52.21;99579.37;1802487;79;21139;-81
2021/04/20 07:15:57;;;;;;;11.75;8.23;;;;;;;14.20;51.72;99579.56;1766526;80;21139;-80
2021/04/20 07:18:50;;;;;;;40.20;8.20;;;;;;;14.05;52.22;99582.17;1777507;80;21167;-81
2021/04/20 07:21:58;;;;;;;13.25;7.72;;;;;;;14.00;52.82;99577.62;1703020;82;22595;-81
2021/04/20 07:25:03;;;;;;;8.53;7.00;;;;;;;13.89;53.31;99578.73;1754185;81;21126;-80
2021/04/20 07:27:49;;;;;;;10.13;7.03;;;;;;;13.84;53.75;99579.49;1683768;82;21141;-78
2021/04/20 07:30:39;;;;;;;9.15;7.62;;;;;;;13.69;53.45;99579.06;1737621;81;21134;-79
2021/04/20 07:34:02;;;;;;;12.25;7.62;;;;;;;13.35;54.15;99583.68;1887231;76;22216;-74
2021/04/20 07:37:07;;;;;;;12.53;10.05;;;;;;;13.00;55.04;99587.81;1858797;77;21158;-78
2021/04/20 07:39:55;;;;;;;11.78;8.93;;;;;;;12.63;56.50;99580.59;1831608;77;21226;-82
2021/04/20 07:42:29;;;;;;;10.88;8.40;;;;;;;12.23;57.87;99587.97;1826046;78;21206;-76
2021/04/20 07:45:20;;;;;;;15.55;8.50;;;;;;;11.99;59.17;99578.72;1828406;78;21186;-76
2021/04/20 07:47:52;;;;;;;13.65;8.65;;;;;;;12.01;59.79;99582.10;1833748;76;21210;-79
2021/04/20 07:50:30;;;;;;;12.65;9.45;;;;;;;12.12;60.18;99581.08;1854503;76;21186;-79
2021/04/20 07:53:24;;;;;;;10.75;8.73;;;;;;;12.06;60.04;99577.47;1772848;80;22829;-79
2021/04/20 07:56:09;;;;;;;11.95;8.60;;;;;;;11.93;60.77;99576.75;1706782;80;21202;-78
2021/04/20 07:58:42;;;;;;;26.07;9.30;;;;;;;11.99;60.67;99572.97;1772132;80;21207;-79
2021/04/20 08:01:41;;;;;;;10.13;8.75;;;;;;;11.91;60.41;99573.34;1769064;80;21198;-79
2021/04/20 08:04:26;;;;;;;14.45;10.08;;;;;;;11.72;60.98;99570.76;1758759;80;21150;-79
2021/04/20 08:07:00;;;;;;;13.72;9.73;;;;;;;11.60;62.22;99566.59;1772738;80;21382;-79
2021/04/20 08:09:29;;;;;;;13.62;9.85;;;;;;;11.64;62.17;99573.39;1739011;80;21189;-79
2021/04/20 08:12:05;;;;;;;10.50;8.55;;;;;;;11.55;62.31;99570.30;1744292;80;21165;-79
2021/04/20 08:15:10;;;;;;;21.15;9.00;;;;;;;11.45;62.51;99569.03;1760672;80;21646;-78
2021/04/20 08:18:08;;;;;;;10.70;8.28;;;;;;;11.42;62.47;99574.47;1773428;80;21623;-79
2021/04/20 08:20:38;;;;;;;11.28;7.70;;;;;;;11.42;61.98;99573.15;1762898;80;21230;-82
2021/04/20 08:23:06;;;;;;;11.63;8.15;;;;;;;11.38;62.59;99572.06;1796992;80;21159;-83
2021/04/20 08:25:42;;;;;;;13.85;8.50;;;;;;;11.42;62.56;99566.56;1776753;78;21135;-83
2021/04/20 08:28:32;;;;;;;10.45;7.78;;;;;;;11.42;62.36;99559.13;1790301;80;21198;-83
2021/04/20 08:31:13;;;;;;;12.60;8.25;;;;;;;11.42;61.64;99553.84;1791195;80;21107;-85
2021/04/20 08:33:45;;;;;;;10.35;7.90;;;;;;;11.44;62.33;99559.91;1798222;78;21670;-81
2021/04/20 08:37:04;;;;;;;11.18;8.35;;;;;;;11.47;62.47;99552.67;1781939;78;21149;-83
2021/04/20 08:40:08;;;;;;;12.28;7.87;;;;;;;11.51;62.68;99554.71;1754471;81;21147;-84
2021/04/20 08:43:02;;;;;;;13.03;8.03;;;;;;;11.61;62.21;99563.00;1758009;81;21218;-84
2021/04/20 08:45:44;;;;;;;10.23;8.15;;;;;;;11.57;61.77;99561.45;1728263;80;21127;-83
2021/04/20 08:48:39;;;;;;;11.03;7.47;;;;;;;11.55;62.21;99562.39;1756548;81;21648;-84
2021/04/20 08:52:49;;;;;;;15.75;8.78;;;;;;;11.78;62.07;99553.78;1814569;79;28342;-85
2021/04/20 08:55:36;;;;;;;10.45;7.45;;;;;;;11.83;60.77;99555.72;1762924;80;21150;-77
2021/04/20 08:58:26;;;;;;;8.30;7.20;;;;;;;11.98;60.48;99551.92;1755976;80;22283;-77
2021/04/20 09:01:16;;;;;;;10.60;6.62;;;;;;;12.22;60.84;99550.64;1778974;79;21631;-76
2021/04/20 09:04:20;;;;;;;10.75;7.75;;;;;;;12.61;59.12;99545.48;1768884;79;21171;-76
2021/04/20 09:06:56;;;;;;;14.78;8.65;;;;;;;12.93;56.57;99533.56;1826880;76;28218;-76
2021/04/20 09:09:26;;;;;;;;;;;;;;;12.86;57.38;99550.70;1771814;79;21028;-77
2021/04/20 09:12:02;;;;;;;11.18;7.80;;;;;;;12.84;57.34;99546.84;1793748;79;20794;-76
2021/04/20 09:14:40;;;;;;;8.70;6.95;;;;;;;12.68;57.83;99541.56;1797970;77;21589;-78
2021/04/20 09:17:19;;;;;;;10.58;7.05;;;;;;;12.63;57.32;99533.04;1794847;79;21197;-77
2021/04/20 09:19:57;;;;;;;9.33;7.22;;;;;;;12.76;57.45;99539.33;1797740;79;21558;-77
2021/04/20 09:22:49;;;;;;;10.40;7.80;;;;;;;12.93;56.67;99532.24;1795083;79;21168;-77
2021/04/20 09:25:24;;;;;;;20.65;8.35;;;;;;;12.92;56.36;99522.14;1785103;79;21655;-75
2021/04/20 09:28:00;;;;;;;15.80;8.15;;;;;;;12.95;56.33;99525.08;1805728;79;21194;-77
2021/04/20 09:30:31;;;;;;;11.68;8.15;;;;;;;12.93;56.50;99516.39;1798574;79;21087;-77
2021/04/20 09:33:10;;;;;;;13.75;8.18;;;;;;;12.90;56.99;99508.64;1792859;78;21190;-78
2021/04/20 09:35:39;;;;;;;14.43;7.95;;;;;;;13.12;57.19;99510.93;1784323;79;21099;-77
2021/04/20 09:38:06;;;;;;;14.65;8.08;;;;;;;13.53;56.33;99507.70;1801948;79;21643;-77
2021/04/20 09:40:34;;;;;;;14.20;7.92;;;;;;;13.87;54.32;99498.57;1754863;80;21123;-78
2021/04/20 09:43:24;;;;;;;17.25;9.45;;;;;;;14.01;53.52;99494.64;1800885;79;21182;-78
2021/04/20 09:46:08;;;;;;;14.33;8.28;;;;;;;14.28;53.16;99487.23;1749565;82;21197;-77
2021/04/20 09:49:09;;;;;;;12.53;8.18;;;;;;;14.53;51.67;99488.34;1780974;80;21194;-76
2021/04/20 09:51:54;;;;;;;15.65;8.45;;;;;;;14.52;50.68;99494.12;1745374;81;22546;-76
2021/04/20 09:54:30;;;;;;;9.88;8.08;;;;;;;14.51;51.10;99479.64;1731539;81;21223;-76
2021/04/20 09:57:01;;;;;;;12.40;7.97;;;;;;;14.45;49.31;99479.09;1799183;79;21170;-77
2021/04/20 09:59:54;;;;;;;9.88;7.30;;;;;;;14.39;50.21;99468.88;1804875;77;21178;-82
2021/04/20 10:02:54;;;;;;;;;;;;;;;14.62;51.34;99463.94;1799144;77;21160;-81
2021/04/20 10:05:55;;;;;;;8.53;6.47;;;;;;;15.03;49.43;99457.75;1748727;80;21634;-81
2021/04/20 10:08:35;;;;;;;8.50;6.70;;;;;;;15.33;49.13;99460.64;1749854;81;21188;-80
2021/04/20 10:11:23;;;;;;;19.67;7.65;;;;;;;15.46;47.70;99457.50;1762479;80;21225;-80
2021/04/20 10:14:29;;;;;;;9.23;7.37;;;;;;;15.16;47.56;99461.30;1757659;80;21618;-81
2021/04/20 10:17:15;;;;;;;13.45;8.20;;;;;;;14.68;48.54;99459.59;1753608;81;21223;-80
2021/04/20 10:20:18;;;;;;;11.80;7.72;;;;;;;14.38;50.26;99460.56;1746628;81;21343;-81
2021/04/20 10:23:04;;;;;;;13.03;7.53;;;;;;;14.19;49.47;99453.38;1747819;80;21252;-81
2021/04/20 10:25:49;;;;;;;10.72;8.03;;;;;;;13.80;50.70;99458.88;1758521;80;21625;-81
2021/04/20 10:28:49;;;;;;;11.75;6.92;;;;;;;13.62;51.27;99451.13;1765069;80;21144;-86
2021/04/20 10:31:41;;;;;;;18.02;7.85;;;;;;;13.34;52.60;99455.02;1746543;81;21247;-79
2021/04/20 10:34:09;;;;;;;11.73;6.67;;;;;;;13.19;54.03;99452.31;1753744;81;21385;-80
2021/04/20 10:36:37;;;;;;;9.65;7.37;;;;;;;13.25;54.13;99451.12;1773999;80;21601;-82
2021/04/20 10:39:08;;;;;;;9.40;6.70;;;;;;;13.28;52.88;99452.76;1744303;81;21173;-81
2021/04/20 10:41:45;;;;;;;8.73;6.78;;;;;;;13.22;53.44;99453.45;1745963;80;21890;-73
2021/04/20 10:44:17;;;;;;;12.55;6.50;;;;;;;13.31;52.92;99444.64;1728262;81;21154;-67
2021/04/20 10:46:55;;;;;;;8.08;6.22;;;;;;;13.41;52.62;99442.69;1754102;81;21378;-69
2021/04/20 10:49:27;;;;;;;11.65;7.37;;;;;;;13.46;53.49;99447.70;1761407;79;21226;-67
2021/04/20 10:51:58;;;;;;;13.32;7.05;;;;;;;13.52;53.13;99440.70;1769999;80;21666;-70
2021/04/20 10:54:34;;;;;;;11.20;6.78;;;;;;;13.57;53.09;99445.27;1772376;80;21211;-69
2021/04/20 10:57:03;;;;;;;9.83;6.50;;;;;;;13.60;52.95;99449.04;1759083;77;21538;-81
2021/04/20 10:59:42;;;;;;;9.18;6.53;;;;;;;13.66;51.12;99450.45;1739316;81;21330;-82
2021/04/20 11:02:13;;;;;;;9.00;6.45;;;;;;;13.68;51.46;99449.05;1703300;81;22344;-82
2021/04/20 11:04:43;;;;;;;8.98;5.87;;;;;;;13.66;52.04;99447.80;1727590;81;21178;-81
2021/04/20 11:07:28;;;;;;;8.48;5.95;;;;;;;13.67;51.08;99443.39;1705004;81;21212;-83
2021/04/20 11:10:06;;;;;;;9.10;6.28;;;;;;;13.71;51.48;99439.58;1740112;81;21198;-83
2021/04/20 11:12:51;;;;;;;10.20;7.67;;;;;;;13.71;51.77;99435.61;1735904;81;21337;-83
2021/04/20 11:15:24;;;;;;;9.05;7.17;;;;;;;13.66;51.59;99437.70;1713756;82;21228;-82
2021/04/20 11:18:10;;;;;;;7.70;6.28;;;;;;;13.56;52.68;99433.44;1746512;81;21180;-83
2021/04/20 11:20:52;;;;;;;9.20;6.20;;;;;;;13.46;53.42;99433.16;1733734;81;21214;-83
2021/04/20 11:23:25;;;;;;;9.80;6.17;;;;;;;13.37;52.17;99431.06;1779231;80;21146;-81
2021/04/20 11:26:11;;;;;;;8.68;6.08;;;;;;;13.11;51.59;99432.10;1771972;80;21367;-81
2021/04/20 11:28:53;;;;;;;11.38;6.25;;;;;;;12.86;52.12;99425.19;1771062;80;21189;-81
2021/04/20 11:31:27;;;;;;;;;;;;;;;12.67;53.82;99430.20;1781264;80;21107;-82
2021/04/20 11:34:01;;;;;;;9.05;6.55;;;;;;;12.62;53.79;99429.62;1778034;80;20283;-80
2021/04/20 11:36:51;;;;;;;9.80;6.87;;;;;;;12.56;53.56;99433.91;1746228;81;21182;-81
2021/04/20 11:39:25;;;;;;;10.03;7.03;;;;;;;12.49;53.51;99429.92;1769198;79;22548;-80
2021/04/20 11:42:06;;;;;;;10.60;7.20;;;;;;;12.51;52.63;99428.05;1779007;80;21166;-82
2021/04/20 11:44:46;;;;;;;10.58;6.30;;;;;;;12.58;52.39;99416.20;1718955;81;26758;-82
2021/04/20 11:47:14;;;;;;;8.65;6.47;;;;;;;12.69;51.12;99416.92;1773112;80;21144;-82
2021/04/20 11:50:08;;;;;;;9.83;6.10;;;;;;;12.75;51.36;99413.46;1773732;80;21711;-81
2021/04/20 11:52:35;;;;;;;8.63;5.67;;;;;;;12.83;51.53;99406.40;1776360;80;21490;-82
2021/04/20 11:55:07;;;;;;;8.75;6.00;;;;;;;12.96;51.76;99395.98;1774439;80;21201;-81
2021/04/20 11:57:35;;;;;;;9.80;6.30;;;;;;;13.12;51.17;99398.09;1702699;80;27229;-81
2021/04/20 12:00:06;;;;;;;13.05;5.72;;;;;;;13.28;51.41;99397.23;1676709;85;21179;-81
2021/04/20 12:02:34;;;;;;;6.45;5.05;;;;;;;13.47;51.43;99393.00;1697247;83;21165;-81
2021/04/20 12:07:53;;;;;;;7.28;5.85;;;;;;;13.91;49.97;99380.14;1840606;75;23193;-82
2021/04/20 12:10:21;;;;;;;9.00;6.37;;;;;;;13.93;49.09;99380.42;1806128;79;21187;-81
2021/04/20 12:12:53;;;;;;;14.55;6.92;;;;;;;13.98;49.29;99376.16;1747201;81;21528;-82